createdAt,value
2019-06-08T00:00:02.162Z,90.80
2019-06-08T00:02:30.639Z,90.90
2019-06-08T00:04:59.057Z,90.60
2019-06-08T00:07:27.485Z,90.80
2019-06-08T00:09:55.946Z,90.40
2019-06-08T00:12:25.605Z,90.30
2019-06-08T00:14:54.278Z,91.20
2019-06-08T00:17:35.770Z,91.00
2019-06-08T00:19:52.869Z,91.20
2019-06-08T00:22:21.960Z,91.60
2019-06-08T00:24:50.445Z,91.00
2019-06-08T00:27:20.203Z,89.80
2019-06-08T00:29:49.149Z,89.50
2019-06-08T00:32:18.483Z,88.40
2019-06-08T00:34:47.037Z,89.20
2019-06-08T00:37:16.659Z,88.80
2019-06-08T00:39:45.086Z,89.10
2019-06-08T00:42:15.555Z,88.90
2019-06-08T00:44:46.787Z,88.10
2019-06-08T00:47:16.347Z,87.70
2019-06-08T00:49:44.840Z,87.50
2019-06-08T00:52:13.260Z,87.40
2019-06-08T00:54:43.808Z,87.20
2019-06-08T00:57:12.261Z,86.70
2019-06-08T00:59:41.101Z,86.10
2019-06-08T01:02:09.601Z,85.80
2019-06-08T01:04:38.080Z,86.10
2019-06-08T01:07:06.665Z,86.50
2019-06-08T01:09:35.185Z,86.80
2019-06-08T01:12:03.745Z,86.20
2019-06-08T01:14:32.242Z,86.10
2019-06-08T01:17:00.798Z,85.40
2019-06-08T01:19:29.662Z,85.60
2019-06-08T01:21:58.264Z,85.30
2019-06-08T01:24:27.938Z,85.80
2019-06-08T01:26:56.641Z,85.20
2019-06-08T01:29:26.302Z,85.80
2019-06-08T01:31:54.995Z,85.50
2019-06-08T01:34:24.719Z,85.20
2019-06-08T01:36:53.274Z,85.80
2019-06-08T01:39:22.964Z,86.50
2019-06-08T01:41:51.574Z,85.40
2019-06-08T01:44:21.456Z,84.80
2019-06-08T01:46:49.954Z,85.30
2019-06-08T01:49:18.379Z,86.20
2019-06-08T01:51:49.338Z,85.20
2019-06-08T01:54:17.766Z,85.00
2019-06-08T01:56:46.271Z,85.00
2019-06-08T01:59:14.765Z,84.50
2019-06-08T02:01:44.291Z,84.70
2019-06-08T02:04:14.427Z,84.60
2019-06-08T02:06:42.962Z,84.80
2019-06-08T02:09:12.924Z,85.40
2019-06-08T02:11:41.359Z,85.80
2019-06-08T02:14:09.819Z,85.70
2019-06-08T02:16:38.227Z,85.90
2019-06-08T02:19:06.670Z,86.50
2019-06-08T02:21:35.539Z,87.10
2019-06-08T02:24:04.174Z,86.10
2019-06-08T02:26:35.162Z,86.30
2019-06-08T02:29:04.244Z,85.80
2019-06-08T02:31:33.198Z,85.80
2019-06-08T02:34:02.841Z,85.90
2019-06-08T02:36:33.319Z,86.10
2019-06-08T02:39:01.458Z,86.70
2019-06-08T02:41:30.776Z,86.90
2019-06-08T02:43:59.296Z,86.70
2019-06-08T02:46:29.047Z,87.00
2019-06-08T02:49:04.270Z,87.00
2019-06-08T02:51:31.008Z,87.20
2019-06-08T02:54:00.740Z,87.70
2019-06-08T02:56:33.958Z,87.80
2019-06-08T02:59:04.872Z,87.60
2019-06-08T03:01:38.260Z,87.70
2019-06-08T03:04:06.480Z,88.40
2019-06-08T03:06:39.385Z,88.00
2019-06-08T03:09:08.324Z,88.50
2019-06-08T03:11:37.110Z,88.80
2019-06-08T03:14:06.538Z,88.80
2019-06-08T03:16:35.928Z,89.30
2019-06-08T03:19:21.121Z,88.90
2019-06-08T03:21:36.302Z,89.60
2019-06-08T03:24:05.559Z,89.40
2019-06-08T03:26:34.333Z,90.10
2019-06-08T03:29:03.014Z,89.90
2019-06-08T03:31:34.585Z,90.20
2019-06-08T03:34:01.715Z,90.40
2019-06-08T03:36:30.250Z,90.40
2019-06-08T03:38:58.737Z,89.00
2019-06-08T03:41:27.181Z,89.20
2019-06-08T03:43:55.678Z,89.60
2019-06-08T03:46:24.174Z,90.30
2019-06-08T03:48:52.608Z,89.30
2019-06-08T03:51:21.105Z,89.80
2019-06-08T03:53:49.564Z,89.50
2019-06-08T03:56:17.988Z,89.10
2019-06-08T03:58:47.988Z,88.00
2019-06-08T04:01:17.185Z,87.50
2019-06-08T04:03:46.230Z,88.10
2019-06-08T04:06:15.118Z,89.00
2019-06-08T04:08:46.599Z,89.00
2019-06-08T04:11:13.846Z,89.40
2019-06-08T04:13:44.361Z,88.50
2019-06-08T04:16:12.571Z,88.50
2019-06-08T04:18:42.124Z,88.10
2019-06-08T04:21:10.949Z,88.10
2019-06-08T04:23:40.476Z,88.10
2019-06-08T04:26:09.631Z,88.10
2019-06-08T04:28:38.365Z,87.50
2019-06-08T04:31:06.901Z,87.80
2019-06-08T04:33:37.786Z,88.00
2019-06-08T04:36:06.380Z,87.80
2019-06-08T04:38:34.840Z,87.90
2019-06-08T04:41:03.314Z,87.80
2019-06-08T04:43:31.767Z,87.80
2019-06-08T04:46:00.250Z,87.80
2019-06-08T04:48:28.665Z,88.30
2019-06-08T04:50:57.094Z,88.80
2019-06-08T04:53:25.621Z,88.30
2019-06-08T04:55:54.073Z,88.30
2019-06-08T04:58:22.488Z,87.40
2019-06-08T05:00:52.167Z,87.10
2019-06-08T05:03:20.678Z,86.60
2019-06-08T05:05:50.255Z,86.00
2019-06-08T05:08:18.826Z,86.10
2019-06-08T05:10:50.121Z,85.20
2019-06-08T05:13:18.603Z,85.30
2019-06-08T05:15:47.398Z,85.00
2019-06-08T05:18:16.043Z,84.90
2019-06-08T05:20:47.266Z,85.10
2019-06-08T05:23:14.629Z,85.20
2019-06-08T05:25:43.174Z,84.80
2019-06-08T05:28:11.573Z,85.70
2019-06-08T05:30:41.292Z,85.40
2019-06-08T05:33:10.236Z,85.80
2019-06-08T05:35:41.712Z,85.30
2019-06-08T05:38:10.125Z,85.50
2019-06-08T05:40:39.466Z,85.40
2019-06-08T05:43:08.268Z,85.70
2019-06-08T05:45:36.754Z,85.90
2019-06-08T05:48:05.331Z,86.20
2019-06-08T05:50:33.871Z,86.50
2019-06-08T05:53:04.002Z,86.50
2019-06-08T05:55:32.434Z,86.50
2019-06-08T05:58:00.859Z,86.40
2019-06-08T06:00:29.295Z,86.30
2019-06-08T06:02:57.879Z,85.70
2019-06-08T06:05:26.347Z,86.70
2019-06-08T06:07:54.834Z,86.50
2019-06-08T06:10:23.316Z,86.70
2019-06-08T06:12:51.755Z,86.70
2019-06-08T06:15:20.264Z,87.20
2019-06-08T06:17:51.417Z,86.70
2019-06-08T06:20:20.194Z,86.90
2019-06-08T06:22:58.534Z,87.20
2019-06-08T06:25:25.823Z,87.50
2019-06-08T06:27:54.251Z,87.80
2019-06-08T06:30:22.892Z,87.50
2019-06-08T06:32:51.942Z,87.90
2019-06-08T06:35:20.458Z,87.00
2019-06-08T06:37:50.580Z,87.60
2019-06-08T06:40:19.134Z,88.10
2019-06-08T06:42:48.008Z,87.90
2019-06-08T06:45:16.732Z,89.90
2019-06-08T06:47:46.459Z,89.50
2019-06-08T06:50:15.260Z,89.80
2019-06-08T06:52:44.599Z,89.80
2019-06-08T06:55:13.803Z,90.00
2019-06-08T06:57:43.452Z,90.40
2019-06-08T07:00:12.588Z,90.40
2019-06-08T07:02:41.396Z,89.40
2019-06-08T07:05:10.689Z,89.30
2019-06-08T07:07:40.754Z,89.70
2019-06-08T07:10:09.835Z,89.40
2019-06-08T07:12:38.296Z,89.20
2019-06-08T07:15:07.328Z,89.40
2019-06-08T07:17:35.810Z,89.20
2019-06-08T07:20:06.777Z,89.50
2019-06-08T07:22:35.347Z,89.10
2019-06-08T07:25:05.021Z,89.60
2019-06-08T07:27:33.438Z,90.00
2019-06-08T07:30:04.069Z,89.60
2019-06-08T07:32:32.524Z,89.40
2019-06-08T07:35:01.065Z,88.50
2019-06-08T07:37:29.689Z,87.40
2019-06-08T07:39:58.125Z,87.40
2019-06-08T07:42:26.585Z,86.00
2019-06-08T07:44:55.233Z,87.40
2019-06-08T07:47:23.813Z,86.40
2019-06-08T07:49:53.284Z,87.30
2019-06-08T07:52:22.057Z,86.10
2019-06-08T07:54:50.939Z,86.70
2019-06-08T07:57:19.598Z,85.40
2019-06-08T07:59:49.153Z,85.00
2019-06-08T08:02:18.156Z,84.10
2019-06-08T08:04:46.607Z,83.70
2019-06-08T08:07:15.052Z,84.70
2019-06-08T08:09:43.457Z,83.80
2019-06-08T08:12:12.432Z,82.80
2019-06-08T08:14:41.170Z,82.50
2019-06-08T08:17:09.575Z,82.90
2019-06-08T08:19:38.363Z,82.70
2019-06-08T08:22:22.246Z,81.40
2019-06-08T08:24:38.687Z,80.30
2019-06-08T08:27:08.551Z,81.40
2019-06-08T08:29:38.262Z,80.70
2019-06-08T08:32:09.803Z,80.00
2019-06-08T08:34:38.180Z,80.00
2019-06-08T08:37:09.528Z,78.10
2019-06-08T08:39:37.687Z,75.70
2019-06-08T08:42:08.463Z,77.00
2019-06-08T08:44:38.023Z,77.70
2019-06-08T08:47:07.721Z,79.00
2019-06-08T08:49:37.969Z,77.00
2019-06-08T08:52:11.162Z,76.80
2019-06-08T08:54:37.733Z,72.60
2019-06-08T08:57:08.378Z,71.90
2019-06-08T08:59:38.249Z,73.10
2019-06-08T09:02:11.054Z,71.20
2019-06-08T09:04:38.098Z,72.40
2019-06-08T09:07:10.180Z,72.50
2019-06-08T09:09:38.733Z,72.20
2019-06-08T09:12:08.271Z,72.60
2019-06-08T09:14:38.705Z,76.10
2019-06-08T09:17:08.909Z,78.00
2019-06-08T09:19:38.162Z,79.20
2019-06-08T09:22:08.523Z,78.20
2019-06-08T09:24:39.099Z,79.60
2019-06-08T09:27:08.034Z,77.90
2019-06-08T09:29:38.847Z,78.60
2019-06-08T09:32:08.264Z,77.90
2019-06-08T09:34:38.669Z,76.40
2019-06-08T09:37:08.100Z,75.60
2019-06-08T09:39:38.544Z,76.50
2019-06-08T09:42:08.989Z,76.30
2019-06-08T09:44:37.893Z,76.80
2019-06-08T09:47:12.591Z,78.20
2019-06-08T09:49:38.562Z,78.80
2019-06-08T09:52:08.456Z,78.70
2019-06-08T09:54:38.437Z,80.10
2019-06-08T09:57:09.115Z,78.80
2019-06-08T09:59:38.661Z,78.70
2019-06-08T10:02:12.654Z,79.10
2019-06-08T10:04:39.068Z,79.10
2019-06-08T10:07:08.802Z,79.00
2019-06-08T10:09:38.134Z,77.80
2019-06-08T10:12:09.910Z,78.40
2019-06-08T10:14:38.169Z,76.80
2019-06-08T10:17:08.937Z,75.60
2019-06-08T10:19:36.996Z,76.20
2019-06-08T10:22:08.410Z,76.60
2019-06-08T10:24:38.811Z,76.80
2019-06-08T10:27:11.046Z,77.10
2019-06-08T10:29:38.200Z,76.30
2019-06-08T10:32:08.945Z,75.20
2019-06-08T10:34:38.674Z,76.60
2019-06-08T10:37:12.634Z,76.30
2019-06-08T10:39:37.943Z,77.20
2019-06-08T10:42:10.098Z,76.40
2019-06-08T10:44:39.325Z,76.70
2019-06-08T10:47:11.483Z,76.00
2019-06-08T10:49:38.533Z,76.20
2019-06-08T10:52:10.651Z,74.70
2019-06-08T10:54:37.886Z,74.40
2019-06-08T10:57:07.624Z,72.90
2019-06-08T10:59:40.031Z,70.90
2019-06-08T11:02:11.828Z,68.70
2019-06-08T11:04:38.813Z,67.20
2019-06-08T11:07:13.283Z,65.80
2019-06-08T11:09:37.850Z,66.00
2019-06-08T11:12:11.282Z,65.70
2019-06-08T11:14:38.151Z,66.90
2019-06-08T11:17:09.641Z,67.60
2019-06-08T11:19:37.654Z,67.50
2019-06-08T11:22:13.904Z,68.40
2019-06-08T11:24:38.864Z,68.20
2019-06-08T11:27:12.709Z,70.00
2019-06-08T11:29:38.553Z,70.30
2019-06-08T11:32:11.834Z,71.00
2019-06-08T11:34:38.102Z,70.80
2019-06-08T11:37:09.851Z,72.80
2019-06-08T11:39:38.195Z,72.90
2019-06-08T11:42:09.781Z,73.10
2019-06-08T11:44:38.945Z,74.00
2019-06-08T11:47:09.730Z,74.50
2019-06-08T11:49:37.558Z,74.30
2019-06-08T11:52:06.844Z,72.80
2019-06-08T11:54:40.098Z,73.70
2019-06-08T11:57:13.393Z,73.40
2019-06-08T11:59:42.590Z,73.20
2019-06-08T12:02:13.978Z,73.50
2019-06-08T12:04:41.303Z,73.10
2019-06-08T12:07:12.246Z,69.80
2019-06-08T12:09:39.984Z,69.50
2019-06-08T12:12:13.577Z,69.20
2019-06-08T12:14:40.553Z,70.20
2019-06-08T12:17:13.500Z,71.70
2019-06-08T12:19:40.358Z,71.80
2019-06-08T12:22:11.324Z,72.40
2019-06-08T12:24:42.452Z,72.00
2019-06-08T12:27:22.374Z,71.00
2019-06-08T12:29:39.458Z,72.30
2019-06-08T12:32:09.459Z,71.30
2019-06-08T12:34:38.448Z,71.20
2019-06-08T12:37:12.144Z,68.90
2019-06-08T12:39:38.775Z,69.40
2019-06-08T12:42:09.600Z,70.50
2019-06-08T12:44:38.265Z,67.40
2019-06-08T12:47:10.607Z,69.10
2019-06-08T12:49:39.939Z,68.50
2019-06-08T12:52:08.646Z,69.10
2019-06-08T12:54:37.355Z,71.60
2019-06-08T12:57:07.904Z,71.00
2019-06-08T12:59:38.312Z,69.40
2019-06-08T13:02:08.739Z,67.10
2019-06-08T13:04:38.376Z,66.30
2019-06-08T13:07:09.755Z,65.80
2019-06-08T13:09:38.133Z,66.00
2019-06-08T13:12:07.971Z,67.00
2019-06-08T13:14:38.513Z,70.50
2019-06-08T13:17:08.685Z,70.00
2019-06-08T13:19:38.758Z,71.00
2019-06-08T13:22:08.810Z,68.30
2019-06-08T13:24:37.683Z,69.80
2019-06-08T13:27:06.649Z,69.40
2019-06-08T13:29:35.134Z,70.80
2019-06-08T13:32:03.683Z,70.10
2019-06-08T13:34:32.364Z,69.60
2019-06-08T13:37:00.850Z,68.70
2019-06-08T13:39:29.262Z,68.30
2019-06-08T13:41:57.757Z,68.40
2019-06-08T13:44:27.808Z,68.00
2019-06-08T13:46:57.785Z,67.10
2019-06-08T13:49:29.682Z,66.50
2019-06-08T13:51:58.421Z,66.10
2019-06-08T13:54:30.808Z,69.00
2019-06-08T13:56:58.973Z,69.40
2019-06-08T13:59:30.338Z,68.80
2019-06-08T14:01:57.955Z,69.50
2019-06-08T14:04:26.884Z,70.60
2019-06-08T14:06:57.726Z,69.50
2019-06-08T14:09:28.565Z,70.10
2019-06-08T14:11:58.034Z,72.10
2019-06-08T14:14:28.847Z,69.60
2019-06-08T14:16:58.639Z,67.90
2019-06-08T14:19:31.054Z,67.30
2019-06-08T14:21:58.821Z,68.30
2019-06-08T14:24:33.807Z,63.70
2019-06-08T14:26:58.484Z,63.30
2019-06-08T14:29:28.957Z,62.20
2019-06-08T14:31:57.919Z,60.30
2019-06-08T14:34:29.015Z,60.80
2019-06-08T14:36:58.982Z,60.10
2019-06-08T14:39:29.551Z,60.50
2019-06-08T14:41:57.800Z,63.70
2019-06-08T14:44:31.292Z,65.20
2019-06-08T14:46:57.925Z,66.70
2019-06-08T14:49:33.838Z,64.70
2019-06-08T14:51:57.915Z,65.80
2019-06-08T14:54:32.442Z,66.40
2019-06-08T14:56:58.113Z,65.90
2019-06-08T14:59:29.593Z,63.80
2019-06-08T15:01:56.865Z,65.80
2019-06-08T15:04:31.569Z,66.40
2019-06-08T15:06:58.416Z,67.50
2019-06-08T15:09:27.521Z,69.60
2019-06-08T15:11:58.154Z,71.70
2019-06-08T15:14:32.588Z,70.60
2019-06-08T15:16:58.848Z,69.70
2019-06-08T15:19:29.037Z,66.30
2019-06-08T15:21:57.207Z,67.70
2019-06-08T15:24:27.254Z,66.30
2019-06-08T15:26:58.174Z,61.70
2019-06-08T15:29:29.075Z,61.70
2019-06-08T15:31:58.225Z,62.30
2019-06-08T15:34:29.684Z,63.00
2019-06-08T15:36:57.557Z,63.50
2019-06-08T15:39:28.450Z,63.50
2019-06-08T15:41:59.907Z,64.50
2019-06-08T15:44:28.656Z,65.90
2019-06-08T15:46:58.481Z,66.50
2019-06-08T15:49:30.411Z,68.50
2019-06-08T15:51:57.936Z,72.00
2019-06-08T15:54:29.224Z,75.90
2019-06-08T15:56:58.519Z,77.50
2019-06-08T15:59:31.200Z,79.00
2019-06-08T16:01:57.176Z,80.10
2019-06-08T16:04:26.030Z,81.40
2019-06-08T16:06:54.522Z,81.40
2019-06-08T16:09:23.969Z,79.80
2019-06-08T16:11:52.679Z,79.90
2019-06-08T16:14:21.455Z,78.00
2019-06-08T16:16:49.960Z,77.50
2019-06-08T16:19:21.620Z,78.90
2019-06-08T16:21:50.856Z,80.20
2019-06-08T16:24:19.331Z,81.80
2019-06-08T16:26:53.249Z,83.00
2019-06-08T16:29:18.243Z,86.00
2019-06-08T16:31:46.900Z,88.20
2019-06-08T16:34:15.328Z,90.10
2019-06-08T16:36:44.018Z,90.20
2019-06-08T16:39:12.855Z,89.80
2019-06-08T16:41:41.481Z,90.20
2019-06-08T16:44:10.121Z,90.40
2019-06-08T16:46:38.690Z,89.60
2019-06-08T16:49:07.387Z,89.80
2019-06-08T16:51:36.069Z,89.60
2019-06-08T16:54:04.973Z,90.30
2019-06-08T16:56:36.343Z,90.20
2019-06-08T16:59:05.427Z,90.60
2019-06-08T17:01:34.712Z,90.70
2019-06-08T17:04:03.572Z,90.60
2019-06-08T17:06:33.197Z,90.70
2019-06-08T17:09:02.374Z,91.10
2019-06-08T17:11:31.773Z,91.10
2019-06-08T17:14:00.299Z,90.80
2019-06-08T17:16:29.980Z,90.70
2019-06-08T17:18:58.806Z,90.70
2019-06-08T17:21:27.213Z,90.60
2019-06-08T17:23:55.992Z,90.40
2019-06-08T17:26:24.571Z,90.00
2019-06-08T17:28:53.144Z,90.10
2019-06-08T17:31:21.799Z,89.60
2019-06-08T17:33:51.797Z,90.10
2019-06-08T17:36:20.467Z,90.50
2019-06-08T17:38:49.058Z,90.60
2019-06-08T17:41:17.625Z,90.80
2019-06-08T17:43:47.878Z,91.00
2019-06-08T17:46:16.570Z,92.00
2019-06-08T17:48:44.997Z,91.80
2019-06-08T17:51:13.680Z,91.80
2019-06-08T17:53:43.325Z,92.00
2019-06-08T17:56:12.194Z,92.20
2019-06-08T17:58:41.278Z,92.40
2019-06-08T18:01:09.919Z,92.60
2019-06-08T18:03:39.842Z,92.20
2019-06-08T18:06:08.697Z,92.40
2019-06-08T18:08:40.603Z,92.40
2019-06-08T18:11:08.080Z,92.30
2019-06-08T18:13:40.542Z,91.90
2019-06-08T18:16:08.220Z,92.20
2019-06-08T18:18:39.273Z,92.10
2019-06-08T18:21:08.178Z,92.00
2019-06-08T18:23:39.171Z,91.10
2019-06-08T18:26:08.928Z,91.70
2019-06-08T18:28:42.294Z,91.40
2019-06-08T18:31:10.902Z,91.40
2019-06-08T18:33:41.265Z,91.10
2019-06-08T18:36:09.537Z,90.20
2019-06-08T18:38:40.837Z,89.10
2019-06-08T18:41:11.324Z,87.50
2019-06-08T18:43:42.357Z,86.70
2019-06-08T18:46:10.130Z,87.00
2019-06-08T18:48:41.655Z,87.50
2019-06-08T18:51:12.438Z,87.20
2019-06-08T18:54:01.830Z,87.60
2019-06-08T18:56:11.095Z,87.70
2019-06-08T18:58:39.764Z,87.40
2019-06-08T19:01:08.844Z,87.60
2019-06-08T19:03:42.282Z,89.50
2019-06-08T19:06:10.134Z,90.70
2019-06-08T19:08:40.924Z,91.10
2019-06-08T19:11:09.925Z,91.30
2019-06-08T19:13:39.371Z,91.50
2019-06-08T19:16:07.785Z,92.20
2019-06-08T19:18:38.390Z,93.70
2019-06-08T19:21:07.791Z,94.60
2019-06-08T19:23:39.048Z,93.70
2019-06-08T19:26:07.711Z,94.70
2019-06-08T19:28:40.622Z,95.60
2019-06-08T19:31:09.879Z,96.80
2019-06-08T19:33:37.286Z,99.10
2019-06-08T19:36:10.455Z,99.50
2019-06-08T19:38:40.086Z,99.90
2019-06-08T19:41:09.063Z,99.90
2019-06-08T19:43:39.962Z,99.90
2019-06-08T19:46:07.656Z,99.90
2019-06-08T19:48:38.620Z,99.90
2019-06-08T19:51:07.621Z,99.90
2019-06-08T19:53:41.641Z,99.90
2019-06-08T19:56:07.860Z,99.90
2019-06-08T19:58:50.731Z,99.90
2019-06-08T20:01:07.300Z,99.90
2019-06-08T20:03:37.913Z,99.90
2019-06-08T20:06:06.283Z,99.90
2019-06-08T20:08:34.810Z,99.90
2019-06-08T20:11:03.239Z,99.90
2019-06-08T20:13:31.702Z,99.90
2019-06-08T20:16:03.396Z,99.90
2019-06-08T20:18:31.297Z,99.90
2019-06-08T20:20:59.715Z,99.90
2019-06-08T20:23:28.147Z,99.90
2019-06-08T20:25:57.344Z,99.90
2019-06-08T20:28:30.487Z,99.90
2019-06-08T20:30:59.930Z,99.90
2019-06-08T20:33:28.365Z,99.90
2019-06-08T20:35:58.569Z,99.90
2019-06-08T20:38:38.244Z,99.90
2019-06-08T20:40:57.989Z,99.90
2019-06-08T20:43:26.706Z,99.90
2019-06-08T20:45:57.532Z,99.90
2019-06-08T20:48:27.577Z,99.90
2019-06-08T20:50:57.209Z,99.90
2019-06-08T20:53:28.136Z,99.90
2019-06-08T20:55:57.225Z,99.90
2019-06-08T20:58:28.148Z,99.90
2019-06-08T21:00:57.728Z,99.90
2019-06-08T21:03:28.015Z,99.90
2019-06-08T21:05:58.181Z,99.90
2019-06-08T21:08:28.170Z,99.90
2019-06-08T21:10:58.719Z,99.90
2019-06-08T21:13:27.452Z,99.90
2019-06-08T21:16:00.265Z,99.90
2019-06-08T21:18:27.603Z,99.90
2019-06-08T21:20:58.090Z,99.90
2019-06-08T21:23:28.153Z,99.90
2019-06-08T21:26:00.010Z,99.90
2019-06-08T21:28:27.960Z,99.90
2019-06-08T21:31:01.647Z,99.90
2019-06-08T21:33:26.742Z,99.90
2019-06-08T21:36:03.438Z,99.90
2019-06-08T21:38:28.030Z,99.90
2019-06-08T21:41:00.257Z,99.90
2019-06-08T21:43:27.877Z,99.90
2019-06-08T21:45:57.043Z,99.90
2019-06-08T21:48:27.517Z,99.90
2019-06-08T21:50:59.985Z,99.90
2019-06-08T21:53:27.512Z,99.90
2019-06-08T21:55:56.315Z,99.90
2019-06-08T21:58:25.102Z,99.90
2019-06-08T22:00:54.752Z,99.90
2019-06-08T22:03:23.542Z,99.90
2019-06-08T22:05:51.960Z,99.90
2019-06-08T22:08:20.434Z,99.90
2019-06-08T22:10:51.043Z,99.90
2019-06-08T22:13:19.044Z,99.90
2019-06-08T22:15:47.644Z,99.90
2019-06-08T22:18:18.300Z,99.90
2019-06-08T22:20:47.852Z,99.90
2019-06-08T22:23:18.065Z,99.90
2019-06-08T22:25:49.354Z,99.90
2019-06-08T22:28:17.827Z,99.90
2019-06-08T22:30:48.375Z,99.90
2019-06-08T22:33:17.700Z,99.90
2019-06-08T22:35:47.752Z,99.90
2019-06-08T22:38:18.966Z,99.90
2019-06-08T22:40:47.865Z,99.90
2019-06-08T22:43:18.986Z,99.90
2019-06-08T22:45:48.176Z,99.90
2019-06-08T22:48:18.853Z,99.90
2019-06-08T22:50:47.734Z,99.90
2019-06-08T22:53:16.196Z,99.90
2019-06-08T22:55:44.676Z,99.90
2019-06-08T22:58:13.155Z,99.90
2019-06-08T23:00:52.303Z,99.90
2019-06-08T23:03:11.923Z,99.90
2019-06-08T23:05:40.418Z,99.90
2019-06-08T23:08:09.469Z,99.90
2019-06-08T23:10:38.142Z,99.90
2019-06-08T23:13:08.565Z,99.90
2019-06-08T23:15:36.734Z,99.90
2019-06-08T23:18:06.599Z,99.90
2019-06-08T23:20:37.127Z,99.90
2019-06-08T23:23:08.683Z,99.90
2019-06-08T23:25:37.310Z,99.90
2019-06-08T23:28:09.583Z,99.90
2019-06-08T23:30:38.179Z,99.90
2019-06-08T23:33:11.075Z,99.90
2019-06-08T23:35:51.337Z,99.90
2019-06-08T23:38:09.439Z,99.90
2019-06-08T23:40:38.061Z,99.90
2019-06-08T23:43:08.067Z,99.90
2019-06-08T23:45:38.022Z,99.90
2019-06-08T23:48:06.716Z,99.90
2019-06-08T23:50:37.784Z,99.90
2019-06-08T23:53:09.143Z,99.90
2019-06-08T23:55:37.215Z,99.90
2019-06-08T23:58:09.456Z,99.90
